Accueil
METAR-TAF:

METAR-TAF

Aéroports :

Bauru, São Paulo, Brésil

latitude: 22-19S, longitude: 049-04W, altitude: 590 m

Observation

Le bulletin a été fait il y a 4 heures et 36 minutes, à 12:00 UTC
Vent 8 kt de nord-est
Température 27°C
Humidité 70%
Pression 1020 hPa
Visibilité 10 km ou plus
pas de nuages en-dessous de 1500 mètres et pas de cumulonimbus.

METAR: SBBU 211200Z 04008KT CAVOK 27/21 Q1020

Heure: 13:36 (16:36 UTC)

Prévision

Le bulletin a été fait il y a 7 heures et 36 minutes, à 09:00 UTC
Prévision valable du 21 à 12 UTC au 21 à 24 UTC
Vent 9 kt de est
Visibilité 10 km ou plus
pas de nuages en-dessous de 1500 mètres et pas de cumulonimbus.
Evoluant progressivement
du 21 à 12 UTC au 21 à 14 UTC
Vent 10 kt de est/nord-est

TAF: SBBU 210900Z 2112/2124 10009KT CAVOK TN27/2112Z TX34/2118Z BECMG 2112/2114 06010KT RMK PDJ

Observations et prévisions météorologiques de plus de 4000 aéroports (messages METAR et TAF).

Les stations disponibles sont représentées par des disques jaunes et rouges sur la carte.

Passer la souris dessus pour voir le nom de la station.

Cliquer dessus pour voir les observations et prévisions météorologiques.

Pour changer de carte: cliquez sur les boutons verts avec une croix noire pour zoomer, sur le bouton vert avec un tiret pour effectuer un zoom arrière, ou sur les flèches vertes pour les cartes adjacentes.


METAR-TAF: